Houstonia, MO

10:09 AM CDT on July 26, 2016 (GMT -0500)
Hwy 20 and 127 South | | Change Station

Elev 830 ft 39.10 °N, 93.42 °W | Updated 4 seconds ago

Clear
Clear
82.9 °F
Feels Like 92 °F
N
5.1
Wind Variable Wind from ESE
Gusts 7.6 mph

Today
High -- | Low -- °F
--% Chance of Precip.
Yesterday
High -- | Low -- °F
Precip. -- in
Pressure 30.06 in
Visibility 10.0 miles
Clouds Clear
Heat Index 92 °F
Dew Point 77 °F
Humidity 82%
Rainfall 0.00 in
Snow Depth Not available.
6:09 AM 8:29 PM
Waning Gibbous, 54% visible
METAR KDMO 261453Z AUTO 06005KT 10SM CLR 27/22 A3008 RMK AO2 SLP177 T02720217 50004
Pressure 30.06 in
Visibility 10.0 miles
Clouds Clear
Heat Index 92 °F
Dew Point 77 °F
Humidity 82%
Rainfall 0.00 in
Snow Depth Not available.
6:09 AM 8:29 PM
Waning Gibbous, 54% visible
METAR KDMO 261453Z AUTO 06005KT 10SM CLR 27/22 A3008 RMK AO2 SLP177 T02720217 50004

10-Day Weather Forecast

Almanac

Astronomy

Jul. 26, 2016 Rise Set
Actual Time
Civil Twilight
Nautical Twilight
Astronomical Twilight
Moon
Length of Visible Light
Length of Day
Tomorrow will be .
, % of the Moon is Illuminated

Today's Extremes

State Highs State Lows

Community

WunderPhotos

Upload Photos

1,927,608 photos uploaded!

WunderBlog® & News

Nearby

Air Quality

  Air Quality AQ Index Pollutant
Not available.

Snow Depth

Station Depth Elevation

Earthquake Activity

City Distance Mag. Time & Date
Minimum magnitude displayed is 2.5.

Coastal Water Temperatures

Place Temperature

Stations

Nearby Weather Stations

Station Location Temp. Windchill Dew Point Humidity Wind Precip. Elev Updated Type
                   

Watches & Warnings

There are currently no watches in effect.